sensor_id;sensor_type;location;lat;lon;timestamp;pressure;altitude;pressure_sealevel;temperature
12854;BMP180;6495;51.808;7.478;2023-11-19T00:01:03;100356.00;;;10.40
12854;BMP180;6495;51.808;7.478;2023-11-19T00:03:32;100343.00;;;10.50
12854;BMP180;6495;51.808;7.478;2023-11-19T00:06:02;100342.00;;;10.50
12854;BMP180;6495;51.808;7.478;2023-11-19T00:08:31;100346.00;;;10.50
12854;BMP180;6495;51.808;7.478;2023-11-19T00:10:59;100358.00;;;10.50
12854;BMP180;6495;51.808;7.478;2023-11-19T00:13:28;100352.00;;;10.50
12854;BMP180;6495;51.808;7.478;2023-11-19T00:15:57;100357.00;;;10.60
12854;BMP180;6495;51.808;7.478;2023-11-19T00:18:26;100365.00;;;10.60
12854;BMP180;6495;51.808;7.478;2023-11-19T00:20:54;100363.00;;;10.70
12854;BMP180;6495;51.808;7.478;2023-11-19T00:23:22;100366.00;;;10.70
12854;BMP180;6495;51.808;7.478;2023-11-19T00:25:51;100360.00;;;10.80
12854;BMP180;6495;51.808;7.478;2023-11-19T00:28:19;100341.00;;;10.70
12854;BMP180;6495;51.808;7.478;2023-11-19T00:30:50;100339.00;;;10.70
12854;BMP180;6495;51.808;7.478;2023-11-19T00:33:21;100323.00;;;10.70
12854;BMP180;6495;51.808;7.478;2023-11-19T00:35:49;100335.00;;;10.80
12854;BMP180;6495;51.808;7.478;2023-11-19T00:38:18;100323.00;;;10.80
12854;BMP180;6495;51.808;7.478;2023-11-19T00:40:46;100320.00;;;10.80
12854;BMP180;6495;51.808;7.478;2023-11-19T00:43:14;100319.00;;;10.80
12854;BMP180;6495;51.808;7.478;2023-11-19T00:45:46;100318.00;;;10.90
12854;BMP180;6495;51.808;7.478;2023-11-19T00:48:17;100315.00;;;10.90
12854;BMP180;6495;51.808;7.478;2023-11-19T00:50:47;100316.00;;;11.00
12854;BMP180;6495;51.808;7.478;2023-11-19T00:53:18;100304.00;;;10.90
12854;BMP180;6495;51.808;7.478;2023-11-19T00:55:48;100300.00;;;11.00
12854;BMP180;6495;51.808;7.478;2023-11-19T00:58:16;100308.00;;;11.00
12854;BMP180;6495;51.808;7.478;2023-11-19T01:00:45;100302.00;;;11.00
12854;BMP180;6495;51.808;7.478;2023-11-19T01:03:13;100289.00;;;11.00
12854;BMP180;6495;51.808;7.478;2023-11-19T01:05:42;100288.00;;;11.10
12854;BMP180;6495;51.808;7.478;2023-11-19T01:08:12;100285.00;;;11.10
12854;BMP180;6495;51.808;7.478;2023-11-19T01:10:41;100288.00;;;11.10
12854;BMP180;6495;51.808;7.478;2023-11-19T01:13:10;100289.00;;;11.10
12854;BMP180;6495;51.808;7.478;2023-11-19T01:15:38;100294.00;;;11.10
12854;BMP180;6495;51.808;7.478;2023-11-19T01:18:08;100293.00;;;11.10
12854;BMP180;6495;51.808;7.478;2023-11-19T01:20:37;100288.00;;;11.20
12854;BMP180;6495;51.808;7.478;2023-11-19T01:23:05;100287.00;;;11.20
12854;BMP180;6495;51.808;7.478;2023-11-19T01:25:36;100295.00;;;11.30
12854;BMP180;6495;51.808;7.478;2023-11-19T01:28:05;100292.00;;;11.30
12854;BMP180;6495;51.808;7.478;2023-11-19T01:30:33;100290.00;;;11.30
12854;BMP180;6495;51.808;7.478;2023-11-19T01:33:03;100290.00;;;11.30
12854;BMP180;6495;51.808;7.478;2023-11-19T01:35:32;100284.00;;;11.30
12854;BMP180;6495;51.808;7.478;2023-11-19T01:38:00;100290.00;;;11.40
12854;BMP180;6495;51.808;7.478;2023-11-19T01:40:28;100276.00;;;11.40
12854;BMP180;6495;51.808;7.478;2023-11-19T01:42:58;100275.00;;;11.40
12854;BMP180;6495;51.808;7.478;2023-11-19T01:45:29;100280.00;;;11.50
12854;BMP180;6495;51.808;7.478;2023-11-19T01:48:00;100267.00;;;11.50
12854;BMP180;6495;51.808;7.478;2023-11-19T01:50:31;100268.00;;;11.50
12854;BMP180;6495;51.808;7.478;2023-11-19T01:53:01;100256.00;;;11.60
12854;BMP180;6495;51.808;7.478;2023-11-19T01:55:29;100246.00;;;11.60
12854;BMP180;6495;51.808;7.478;2023-11-19T01:58:01;100235.00;;;11.70
12854;BMP180;6495;51.808;7.478;2023-11-19T02:00:32;100237.00;;;11.70
12854;BMP180;6495;51.808;7.478;2023-11-19T02:03:01;100223.00;;;11.70
12854;BMP180;6495;51.808;7.478;2023-11-19T02:05:31;100229.00;;;11.70
12854;BMP180;6495;51.808;7.478;2023-11-19T02:08:03;100230.00;;;11.70
12854;BMP180;6495;51.808;7.478;2023-11-19T02:10:32;100230.00;;;11.80
12854;BMP180;6495;51.808;7.478;2023-11-19T02:13:02;100238.00;;;11.80
12854;BMP180;6495;51.808;7.478;2023-11-19T02:15:33;100232.00;;;11.80
12854;BMP180;6495;51.808;7.478;2023-11-19T02:18:19;100229.00;;;11.90
12854;BMP180;6495;51.808;7.478;2023-11-19T02:20:49;100224.00;;;11.90
12854;BMP180;6495;51.808;7.478;2023-11-19T02:23:19;100223.00;;;12.00
12854;BMP180;6495;51.808;7.478;2023-11-19T02:26:03;100214.00;;;12.00
12854;BMP180;6495;51.808;7.478;2023-11-19T02:28:36;100218.00;;;12.00
12854;BMP180;6495;51.808;7.478;2023-11-19T02:31:05;100227.00;;;12.10
12854;BMP180;6495;51.808;7.478;2023-11-19T02:33:37;100229.00;;;12.10
12854;BMP180;6495;51.808;7.478;2023-11-19T02:36:07;100218.00;;;12.10
12854;BMP180;6495;51.808;7.478;2023-11-19T02:39:00;100220.00;;;12.20
12854;BMP180;6495;51.808;7.478;2023-11-19T02:41:29;100207.00;;;12.20
12854;BMP180;6495;51.808;7.478;2023-11-19T02:43:58;100201.00;;;12.20
12854;BMP180;6495;51.808;7.478;2023-11-19T02:46:26;100205.00;;;12.20
12854;BMP180;6495;51.808;7.478;2023-11-19T02:53:16;100186.00;;;12.30
12854;BMP180;6495;51.808;7.478;2023-11-19T02:55:50;100182.00;;;12.30
12854;BMP180;6495;51.808;7.478;2023-11-19T02:58:36;100191.00;;;12.40
12854;BMP180;6495;51.808;7.478;2023-11-19T03:01:40;100190.00;;;12.40
12854;BMP180;6495;51.808;7.478;2023-11-19T03:04:26;100181.00;;;12.40
12854;BMP180;6495;51.808;7.478;2023-11-19T03:07:00;100194.00;;;12.40
12854;BMP180;6495;51.808;7.478;2023-11-19T03:09:29;100187.00;;;12.50
12854;BMP180;6495;51.808;7.478;2023-11-19T03:12:08;100194.00;;;12.50
12854;BMP180;6495;51.808;7.478;2023-11-19T03:14:37;100189.00;;;12.50
12854;BMP180;6495;51.808;7.478;2023-11-19T03:17:17;100178.00;;;12.50
12854;BMP180;6495;51.808;7.478;2023-11-19T03:20:01;100181.00;;;12.60
12854;BMP180;6495;51.808;7.478;2023-11-19T03:22:42;100172.00;;;12.50
12854;BMP180;6495;51.808;7.478;2023-11-19T03:25:28;100164.00;;;12.50
12854;BMP180;6495;51.808;7.478;2023-11-19T03:28:04;100173.00;;;12.50
12854;BMP180;6495;51.808;7.478;2023-11-19T03:30:40;100177.00;;;12.50
12854;BMP180;6495;51.808;7.478;2023-11-19T03:33:24;100173.00;;;12.50
12854;BMP180;6495;51.808;7.478;2023-11-19T03:36:13;100169.00;;;12.60
12854;BMP180;6495;51.808;7.478;2023-11-19T03:39:01;100185.00;;;12.60
12854;BMP180;6495;51.808;7.478;2023-11-19T03:41:51;100201.00;;;12.60
12854;BMP180;6495;51.808;7.478;2023-11-19T03:44:27;100197.00;;;12.60
12854;BMP180;6495;51.808;7.478;2023-11-19T03:47:00;100201.00;;;12.60
12854;BMP180;6495;51.808;7.478;2023-11-19T03:49:37;100188.00;;;12.60
12854;BMP180;6495;51.808;7.478;2023-11-19T03:52:40;100194.00;;;12.60
12854;BMP180;6495;51.808;7.478;2023-11-19T03:55:11;100203.00;;;12.60
12854;BMP180;6495;51.808;7.478;2023-11-19T03:57:43;100204.00;;;12.60
12854;BMP180;6495;51.808;7.478;2023-11-19T04:03:16;100196.00;;;12.60
12854;BMP180;6495;51.808;7.478;2023-11-19T04:06:20;100199.00;;;12.60
12854;BMP180;6495;51.808;7.478;2023-11-19T04:09:01;100194.00;;;12.60
12854;BMP180;6495;51.808;7.478;2023-11-19T04:11:45;100198.00;;;12.60
12854;BMP180;6495;51.808;7.478;2023-11-19T04:14:23;100189.00;;;12.60
12854;BMP180;6495;51.808;7.478;2023-11-19T04:16:56;100176.00;;;12.50
12854;BMP180;6495;51.808;7.478;2023-11-19T04:19:33;100189.00;;;12.50
12854;BMP180;6495;51.808;7.478;2023-11-19T04:22:34;100188.00;;;12.40
12854;BMP180;6495;51.808;7.478;2023-11-19T04:25:29;100191.00;;;12.40
12854;BMP180;6495;51.808;7.478;2023-11-19T04:28:34;100182.00;;;12.40
12854;BMP180;6495;51.808;7.478;2023-11-19T04:31:50;100176.00;;;12.40
12854;BMP180;6495;51.808;7.478;2023-11-19T04:34:44;100192.00;;;12.40
12854;BMP180;6495;51.808;7.478;2023-11-19T04:37:14;100191.00;;;12.30
12854;BMP180;6495;51.808;7.478;2023-11-19T04:39:57;100187.00;;;12.30
12854;BMP180;6495;51.808;7.478;2023-11-19T04:42:37;100174.00;;;12.30
12854;BMP180;6495;51.808;7.478;2023-11-19T04:45:14;100160.00;;;12.30
12854;BMP180;6495;51.808;7.478;2023-11-19T04:47:44;100184.00;;;12.30
12854;BMP180;6495;51.808;7.478;2023-11-19T04:50:19;100189.00;;;12.30
12854;BMP180;6495;51.808;7.478;2023-11-19T04:52:58;100181.00;;;12.30
12854;BMP180;6495;51.808;7.478;2023-11-19T04:55:33;100189.00;;;12.30
12854;BMP180;6495;51.808;7.478;2023-11-19T04:58:08;100183.00;;;12.30
12854;BMP180;6495;51.808;7.478;2023-11-19T05:00:43;100191.00;;;12.30
12854;BMP180;6495;51.808;7.478;2023-11-19T05:03:13;100197.00;;;12.30
12854;BMP180;6495;51.808;7.478;2023-11-19T05:05:47;100197.00;;;12.20
12854;BMP180;6495;51.808;7.478;2023-11-19T05:08:30;100202.00;;;12.20
12854;BMP180;6495;51.808;7.478;2023-11-19T05:11:16;100197.00;;;12.20
12854;BMP180;6495;51.808;7.478;2023-11-19T05:13:48;100199.00;;;12.20
12854;BMP180;6495;51.808;7.478;2023-11-19T05:16:21;100197.00;;;12.20
12854;BMP180;6495;51.808;7.478;2023-11-19T05:19:19;100199.00;;;12.30
12854;BMP180;6495;51.808;7.478;2023-11-19T05:21:57;100209.00;;;12.20
12854;BMP180;6495;51.808;7.478;2023-11-19T05:24:47;100199.00;;;12.20
12854;BMP180;6495;51.808;7.478;2023-11-19T05:27:27;100210.00;;;12.20
12854;BMP180;6495;51.808;7.478;2023-11-19T05:30:17;100206.00;;;12.20
12854;BMP180;6495;51.808;7.478;2023-11-19T05:32:50;100213.00;;;12.20
12854;BMP180;6495;51.808;7.478;2023-11-19T05:35:42;100216.00;;;12.10
12854;BMP180;6495;51.808;7.478;2023-11-19T05:38:12;100209.00;;;12.10
12854;BMP180;6495;51.808;7.478;2023-11-19T05:40:55;100209.00;;;12.20
12854;BMP180;6495;51.808;7.478;2023-11-19T05:43:38;100213.00;;;12.20
12854;BMP180;6495;51.808;7.478;2023-11-19T05:46:11;100205.00;;;12.10
12854;BMP180;6495;51.808;7.478;2023-11-19T05:48:46;100216.00;;;12.20
12854;BMP180;6495;51.808;7.478;2023-11-19T05:51:25;100210.00;;;12.20
12854;BMP180;6495;51.808;7.478;2023-11-19T05:53:54;100214.00;;;12.10
12854;BMP180;6495;51.808;7.478;2023-11-19T05:56:34;100202.00;;;12.10
12854;BMP180;6495;51.808;7.478;2023-11-19T05:59:11;100220.00;;;12.10
12854;BMP180;6495;51.808;7.478;2023-11-19T06:01:46;100205.00;;;12.10
12854;BMP180;6495;51.808;7.478;2023-11-19T06:04:21;100205.00;;;12.00
12854;BMP180;6495;51.808;7.478;2023-11-19T06:06:56;100223.00;;;12.00
12854;BMP180;6495;51.808;7.478;2023-11-19T06:09:44;100207.00;;;12.00
12854;BMP180;6495;51.808;7.478;2023-11-19T06:12:53;100209.00;;;12.00
12854;BMP180;6495;51.808;7.478;2023-11-19T06:15:29;100208.00;;;11.90
12854;BMP180;6495;51.808;7.478;2023-11-19T06:18:05;100211.00;;;11.90
12854;BMP180;6495;51.808;7.478;2023-11-19T06:20:36;100222.00;;;11.90
12854;BMP180;6495;51.808;7.478;2023-11-19T06:23:08;100219.00;;;11.90
12854;BMP180;6495;51.808;7.478;2023-11-19T06:26:03;100228.00;;;11.90
12854;BMP180;6495;51.808;7.478;2023-11-19T06:28:39;100219.00;;;11.90
12854;BMP180;6495;51.808;7.478;2023-11-19T06:31:10;100227.00;;;11.90
12854;BMP180;6495;51.808;7.478;2023-11-19T06:33:39;100234.00;;;11.90
12854;BMP180;6495;51.808;7.478;2023-11-19T06:36:17;100227.00;;;11.90
12854;BMP180;6495;51.808;7.478;2023-11-19T06:38:48;100229.00;;;11.90
12854;BMP180;6495;51.808;7.478;2023-11-19T06:41:20;100227.00;;;11.90
12854;BMP180;6495;51.808;7.478;2023-11-19T06:43:54;100236.00;;;11.80
12854;BMP180;6495;51.808;7.478;2023-11-19T06:46:34;100234.00;;;11.90
12854;BMP180;6495;51.808;7.478;2023-11-19T06:49:12;100238.00;;;11.90
12854;BMP180;6495;51.808;7.478;2023-11-19T06:51:49;100241.00;;;11.90
12854;BMP180;6495;51.808;7.478;2023-11-19T06:54:29;100245.00;;;11.90
12854;BMP180;6495;51.808;7.478;2023-11-19T06:57:16;100246.00;;;11.90
12854;BMP180;6495;51.808;7.478;2023-11-19T07:00:20;100246.00;;;11.90
12854;BMP180;6495;51.808;7.478;2023-11-19T07:03:10;100261.00;;;11.90
12854;BMP180;6495;51.808;7.478;2023-11-19T07:05:40;100250.00;;;11.90
12854;BMP180;6495;51.808;7.478;2023-11-19T07:08:25;100255.00;;;11.90
12854;BMP180;6495;51.808;7.478;2023-11-19T07:11:00;100264.00;;;11.90
12854;BMP180;6495;51.808;7.478;2023-11-19T07:13:37;100270.00;;;11.90
12854;BMP180;6495;51.808;7.478;2023-11-19T07:16:09;100255.00;;;11.90
12854;BMP180;6495;51.808;7.478;2023-11-19T07:18:40;100271.00;;;11.90
12854;BMP180;6495;51.808;7.478;2023-11-19T07:21:11;100256.00;;;11.90
12854;BMP180;6495;51.808;7.478;2023-11-19T07:23:42;100259.00;;;11.90
12854;BMP180;6495;51.808;7.478;2023-11-19T07:26:11;100259.00;;;11.90
12854;BMP180;6495;51.808;7.478;2023-11-19T07:28:56;100258.00;;;11.90
12854;BMP180;6495;51.808;7.478;2023-11-19T07:31:30;100264.00;;;11.90
12854;BMP180;6495;51.808;7.478;2023-11-19T07:34:08;100278.00;;;11.80
12854;BMP180;6495;51.808;7.478;2023-11-19T07:36:47;100274.00;;;11.90
12854;BMP180;6495;51.808;7.478;2023-11-19T07:39:17;100274.00;;;11.90
12854;BMP180;6495;51.808;7.478;2023-11-19T07:41:54;100268.00;;;11.90
12854;BMP180;6495;51.808;7.478;2023-11-19T07:44:28;100275.00;;;11.90
12854;BMP180;6495;51.808;7.478;2023-11-19T07:47:04;100272.00;;;11.90
12854;BMP180;6495;51.808;7.478;2023-11-19T07:49:34;100282.00;;;12.00
12854;BMP180;6495;51.808;7.478;2023-11-19T07:52:21;100284.00;;;12.00
12854;BMP180;6495;51.808;7.478;2023-11-19T07:54:50;100289.00;;;12.00
12854;BMP180;6495;51.808;7.478;2023-11-19T07:57:28;100304.00;;;12.00
12854;BMP180;6495;51.808;7.478;2023-11-19T08:02:48;100299.00;;;12.00
12854;BMP180;6495;51.808;7.478;2023-11-19T08:05:19;100306.00;;;12.00
12854;BMP180;6495;51.808;7.478;2023-11-19T08:07:49;100300.00;;;12.00
12854;BMP180;6495;51.808;7.478;2023-11-19T08:10:23;100307.00;;;12.00
12854;BMP180;6495;51.808;7.478;2023-11-19T08:12:52;100310.00;;;12.00
12854;BMP180;6495;51.808;7.478;2023-11-19T08:18:48;100324.00;;;12.00
12854;BMP180;6495;51.808;7.478;2023-11-19T08:21:19;100316.00;;;12.00
12854;BMP180;6495;51.808;7.478;2023-11-19T08:28:23;100330.00;;;12.00
12854;BMP180;6495;51.808;7.478;2023-11-19T08:30:56;100325.00;;;12.10
12854;BMP180;6495;51.808;7.478;2023-11-19T08:33:43;100338.00;;;12.10
12854;BMP180;6495;51.808;7.478;2023-11-19T08:36:16;100325.00;;;12.10
12854;BMP180;6495;51.808;7.478;2023-11-19T08:38:46;100339.00;;;12.10
12854;BMP180;6495;51.808;7.478;2023-11-19T08:41:16;100337.00;;;12.10
12854;BMP180;6495;51.808;7.478;2023-11-19T08:43:54;100348.00;;;12.10
12854;BMP180;6495;51.808;7.478;2023-11-19T08:47:21;100342.00;;;12.20
12854;BMP180;6495;51.808;7.478;2023-11-19T08:49:58;100341.00;;;12.20
12854;BMP180;6495;51.808;7.478;2023-11-19T08:52:31;100347.00;;;12.20
12854;BMP180;6495;51.808;7.478;2023-11-19T08:55:28;100346.00;;;12.20
12854;BMP180;6495;51.808;7.478;2023-11-19T08:58:03;100339.00;;;12.20
12854;BMP180;6495;51.808;7.478;2023-11-19T09:00:52;100338.00;;;12.20
12854;BMP180;6495;51.808;7.478;2023-11-19T09:03:48;100342.00;;;12.30
12854;BMP180;6495;51.808;7.478;2023-11-19T09:06:21;100348.00;;;12.30
12854;BMP180;6495;51.808;7.478;2023-11-19T09:12:16;100337.00;;;12.30
12854;BMP180;6495;51.808;7.478;2023-11-19T09:14:57;100346.00;;;12.30
12854;BMP180;6495;51.808;7.478;2023-11-19T09:17:32;100352.00;;;12.30
12854;BMP180;6495;51.808;7.478;2023-11-19T09:20:27;100355.00;;;12.40
12854;BMP180;6495;51.808;7.478;2023-11-19T09:23:22;100346.00;;;12.40
12854;BMP180;6495;51.808;7.478;2023-11-19T09:26:04;100363.00;;;12.40
12854;BMP180;6495;51.808;7.478;2023-11-19T09:28:41;100372.00;;;12.40
12854;BMP180;6495;51.808;7.478;2023-11-19T09:31:26;100366.00;;;12.30
12854;BMP180;6495;51.808;7.478;2023-11-19T09:34:08;100372.00;;;12.40
12854;BMP180;6495;51.808;7.478;2023-11-19T09:36:59;100371.00;;;12.40
12854;BMP180;6495;51.808;7.478;2023-11-19T09:43:21;100362.00;;;12.40
12854;BMP180;6495;51.808;7.478;2023-11-19T09:46:18;100362.00;;;12.50
12854;BMP180;6495;51.808;7.478;2023-11-19T09:49:13;100352.00;;;12.50
12854;BMP180;6495;51.808;7.478;2023-11-19T09:52:11;100361.00;;;12.60
12854;BMP180;6495;51.808;7.478;2023-11-19T09:58:27;100361.00;;;12.60
12854;BMP180;6495;51.808;7.478;2023-11-19T10:01:43;100361.00;;;12.70
12854;BMP180;6495;51.808;7.478;2023-11-19T10:04:35;100362.00;;;12.70
12854;BMP180;6495;51.808;7.478;2023-11-19T10:10:31;100357.00;;;12.80
12854;BMP180;6495;51.808;7.478;2023-11-19T10:13:28;100350.00;;;12.80
12854;BMP180;6495;51.808;7.478;2023-11-19T10:16:18;100354.00;;;12.80
12854;BMP180;6495;51.808;7.478;2023-11-19T10:19:23;100357.00;;;12.80
12854;BMP180;6495;51.808;7.478;2023-11-19T10:22:11;100343.00;;;12.80
12854;BMP180;6495;51.808;7.478;2023-11-19T10:28:40;100344.00;;;12.90
12854;BMP180;6495;51.808;7.478;2023-11-19T10:31:28;100338.00;;;12.90
12854;BMP180;6495;51.808;7.478;2023-11-19T10:34:44;100344.00;;;12.90
12854;BMP180;6495;51.808;7.478;2023-11-19T10:37:41;100334.00;;;12.80
12854;BMP180;6495;51.808;7.478;2023-11-19T10:40:45;100334.00;;;12.80
12854;BMP180;6495;51.808;7.478;2023-11-19T10:43:42;100339.00;;;12.80
12854;BMP180;6495;51.808;7.478;2023-11-19T10:46:56;100335.00;;;12.90
12854;BMP180;6495;51.808;7.478;2023-11-19T10:49:42;100330.00;;;12.90
12854;BMP180;6495;51.808;7.478;2023-11-19T10:52:47;100333.00;;;12.90
12854;BMP180;6495;51.808;7.478;2023-11-19T10:55:54;100324.00;;;12.90
12854;BMP180;6495;51.808;7.478;2023-11-19T10:58:49;100332.00;;;12.90
12854;BMP180;6495;51.808;7.478;2023-11-19T11:01:37;100322.00;;;13.00
12854;BMP180;6495;51.808;7.478;2023-11-19T11:04:30;100331.00;;;12.90
12854;BMP180;6495;51.808;7.478;2023-11-19T11:07:34;100333.00;;;12.90
12854;BMP180;6495;51.808;7.478;2023-11-19T11:10:14;100330.00;;;13.00
12854;BMP180;6495;51.808;7.478;2023-11-19T11:12:59;100340.00;;;13.00
12854;BMP180;6495;51.808;7.478;2023-11-19T11:15:34;100335.00;;;13.00
12854;BMP180;6495;51.808;7.478;2023-11-19T11:19:04;100323.00;;;13.00
12854;BMP180;6495;51.808;7.478;2023-11-19T11:21:59;100330.00;;;13.00
12854;BMP180;6495;51.808;7.478;2023-11-19T11:25:27;100331.00;;;13.00
12854;BMP180;6495;51.808;7.478;2023-11-19T11:28:28;100332.00;;;13.00
12854;BMP180;6495;51.808;7.478;2023-11-19T11:31:35;100324.00;;;13.10
12854;BMP180;6495;51.808;7.478;2023-11-19T11:34:58;100331.00;;;13.20
12854;BMP180;6495;51.808;7.478;2023-11-19T11:37:59;100318.00;;;13.20
12854;BMP180;6495;51.808;7.478;2023-11-19T11:41:21;100324.00;;;13.20
12854;BMP180;6495;51.808;7.478;2023-11-19T11:44:00;100330.00;;;13.20
12854;BMP180;6495;51.808;7.478;2023-11-19T11:46:56;100331.00;;;13.30
12854;BMP180;6495;51.808;7.478;2023-11-19T11:49:55;100324.00;;;13.30
12854;BMP180;6495;51.808;7.478;2023-11-19T11:52:31;100322.00;;;13.30
12854;BMP180;6495;51.808;7.478;2023-11-19T11:55:08;100314.00;;;13.30
12854;BMP180;6495;51.808;7.478;2023-11-19T11:57:55;100305.00;;;13.30
12854;BMP180;6495;51.808;7.478;2023-11-19T12:00:31;100331.00;;;13.30
12854;BMP180;6495;51.808;7.478;2023-11-19T12:03:13;100314.00;;;13.30
12854;BMP180;6495;51.808;7.478;2023-11-19T12:05:59;100310.00;;;13.30
12854;BMP180;6495;51.808;7.478;2023-11-19T12:08:52;100309.00;;;13.20
12854;BMP180;6495;51.808;7.478;2023-11-19T12:15:15;100290.00;;;13.20
12854;BMP180;6495;51.808;7.478;2023-11-19T12:21:06;100301.00;;;13.20
12854;BMP180;6495;51.808;7.478;2023-11-19T12:24:12;100303.00;;;13.30
12854;BMP180;6495;51.808;7.478;2023-11-19T12:26:56;100307.00;;;13.30
12854;BMP180;6495;51.808;7.478;2023-11-19T12:29:51;100298.00;;;13.40
12854;BMP180;6495;51.808;7.478;2023-11-19T12:33:07;100300.00;;;13.40
12854;BMP180;6495;51.808;7.478;2023-11-19T12:36:09;100287.00;;;13.40
12854;BMP180;6495;51.808;7.478;2023-11-19T12:38:55;100288.00;;;13.40
12854;BMP180;6495;51.808;7.478;2023-11-19T12:42:16;100284.00;;;13.50
12854;BMP180;6495;51.808;7.478;2023-11-19T12:45:02;100275.00;;;13.50
12854;BMP180;6495;51.808;7.478;2023-11-19T12:47:41;100269.00;;;13.50
12854;BMP180;6495;51.808;7.478;2023-11-19T12:50:26;100270.00;;;13.50
12854;BMP180;6495;51.808;7.478;2023-11-19T12:53:03;100274.00;;;13.50
12854;BMP180;6495;51.808;7.478;2023-11-19T12:56:07;100276.00;;;13.50
12854;BMP180;6495;51.808;7.478;2023-11-19T12:58:53;100274.00;;;13.50
12854;BMP180;6495;51.808;7.478;2023-11-19T13:01:54;100276.00;;;13.50
12854;BMP180;6495;51.808;7.478;2023-11-19T13:04:57;100273.00;;;13.50
12854;BMP180;6495;51.808;7.478;2023-11-19T16:10:20;100248.00;;;12.80
12854;BMP180;6495;51.808;7.478;2023-11-19T16:12:52;100239.00;;;12.80
12854;BMP180;6495;51.808;7.478;2023-11-19T16:16:04;100244.00;;;12.80
12854;BMP180;6495;51.808;7.478;2023-11-19T16:19:39;100261.00;;;12.80
12854;BMP180;6495;51.808;7.478;2023-11-19T16:22:11;100258.00;;;12.70
12854;BMP180;6495;51.808;7.478;2023-11-19T16:24:42;100249.00;;;12.70
12854;BMP180;6495;51.808;7.478;2023-11-19T16:27:13;100248.00;;;12.70
12854;BMP180;6495;51.808;7.478;2023-11-19T16:30:17;100254.00;;;12.70
12854;BMP180;6495;51.808;7.478;2023-11-19T16:33:01;100240.00;;;12.70
12854;BMP180;6495;51.808;7.478;2023-11-19T16:36:03;100246.00;;;12.70
12854;BMP180;6495;51.808;7.478;2023-11-19T16:38:35;100251.00;;;12.70
12854;BMP180;6495;51.808;7.478;2023-11-19T16:41:30;100237.00;;;12.70
12854;BMP180;6495;51.808;7.478;2023-11-19T17:35:52;100273.00;;;12.60
12854;BMP180;6495;51.808;7.478;2023-11-19T18:19:06;100264.00;;;12.30
12854;BMP180;6495;51.808;7.478;2023-11-19T18:26:24;100256.00;;;12.30
12854;BMP180;6495;51.808;7.478;2023-11-19T18:58:50;100242.00;;;12.10
12854;BMP180;6495;51.808;7.478;2023-11-19T19:10:39;100232.00;;;12.00
12854;BMP180;6495;51.808;7.478;2023-11-19T19:29:17;100212.00;;;11.90
12854;BMP180;6495;51.808;7.478;2023-11-19T19:35:53;100208.00;;;11.90
12854;BMP180;6495;51.808;7.478;2023-11-19T19:38:50;100209.00;;;11.90
12854;BMP180;6495;51.808;7.478;2023-11-19T19:59:42;100188.00;;;11.80
12854;BMP180;6495;51.808;7.478;2023-11-19T20:03:00;100183.00;;;11.80
